createdAt,value
2018-03-11T00:00:38.578Z,0.00
2018-03-11T00:01:38.523Z,0.00
2018-03-11T00:02:40.099Z,0.00
2018-03-11T00:03:41.078Z,0.00
2018-03-11T00:04:38.475Z,0.00
2018-03-11T00:05:38.420Z,0.00
2018-03-11T00:06:38.444Z,0.00
2018-03-11T00:07:38.373Z,0.00
2018-03-11T00:08:38.329Z,0.00
2018-03-11T00:09:38.330Z,0.00
2018-03-11T00:10:38.286Z,0.00
2018-03-11T00:11:38.253Z,0.00
2018-03-11T00:12:38.347Z,0.00
2018-03-11T00:13:38.203Z,0.00
2018-03-11T00:14:38.217Z,0.00
2018-03-11T00:15:38.130Z,0.00
2018-03-11T00:16:38.144Z,0.00
2018-03-11T00:17:38.095Z,0.00
2018-03-11T00:18:38.100Z,0.00
2018-03-11T00:19:38.053Z,0.00
2018-03-11T00:20:38.046Z,0.00
2018-03-11T00:21:38.015Z,0.00
2018-03-11T00:22:37.957Z,0.00
2018-03-11T00:23:38.128Z,0.00
2018-03-11T00:24:37.954Z,0.00
2018-03-11T00:25:37.916Z,0.00
2018-03-11T00:26:37.930Z,0.00
2018-03-11T00:27:37.996Z,0.00
2018-03-11T00:28:37.806Z,0.00
2018-03-11T00:29:37.811Z,0.00
2018-03-11T00:30:37.738Z,0.00
2018-03-11T00:31:37.715Z,0.00
2018-03-11T00:32:37.707Z,0.00
2018-03-11T00:33:37.713Z,0.00
2018-03-11T00:34:37.649Z,0.00
2018-03-11T00:35:37.604Z,0.00
2018-03-11T00:36:38.572Z,0.00
2018-03-11T00:37:37.549Z,0.00
2018-03-11T00:38:37.507Z,0.00
2018-03-11T00:39:37.498Z,0.00
2018-03-11T00:40:37.456Z,0.00
2018-03-11T00:41:37.396Z,0.00
2018-03-11T00:42:37.363Z,0.00
2018-03-11T00:43:37.367Z,0.00
2018-03-11T00:44:37.308Z,0.00
2018-03-11T00:45:37.283Z,0.00
2018-03-11T00:46:39.038Z,0.00
2018-03-11T00:47:37.232Z,0.00
2018-03-11T00:48:37.201Z,0.00
2018-03-11T00:49:37.177Z,0.00
2018-03-11T00:50:37.148Z,0.00
2018-03-11T00:51:37.172Z,0.00
2018-03-11T00:52:37.089Z,0.00
2018-03-11T00:53:37.064Z,0.00
2018-03-11T00:54:37.034Z,0.00
2018-03-11T00:55:37.010Z,0.00
2018-03-11T00:56:36.984Z,0.00
2018-03-11T00:57:36.957Z,0.00
2018-03-11T00:58:36.937Z,0.00
2018-03-11T00:59:36.903Z,0.00
2018-03-11T01:00:36.879Z,0.00
2018-03-11T01:01:36.850Z,0.00
2018-03-11T01:02:36.822Z,0.00
2018-03-11T01:03:36.793Z,0.00
2018-03-11T01:04:36.774Z,0.00
2018-03-11T01:05:36.737Z,0.00
2018-03-11T01:06:36.708Z,0.00
2018-03-11T01:07:36.703Z,0.00
2018-03-11T01:08:36.652Z,0.00
2018-03-11T01:09:36.627Z,0.00
2018-03-11T01:10:36.621Z,0.00
2018-03-11T01:11:36.572Z,0.00
2018-03-11T01:12:36.555Z,0.00
2018-03-11T01:13:36.530Z,0.00
2018-03-11T01:14:36.492Z,0.00
2018-03-11T01:15:36.470Z,0.00
2018-03-11T01:16:36.445Z,0.00
2018-03-11T01:17:36.409Z,0.00
2018-03-11T01:18:36.389Z,0.00
2018-03-11T01:19:36.360Z,0.00
2018-03-11T01:20:36.322Z,0.00
2018-03-11T01:21:36.297Z,0.00
2018-03-11T01:22:36.277Z,0.00
2018-03-11T01:23:36.242Z,0.00
2018-03-11T01:24:36.218Z,0.00
2018-03-11T01:25:36.188Z,0.00
2018-03-11T01:26:36.158Z,0.00
2018-03-11T01:27:36.133Z,0.00
2018-03-11T01:28:38.047Z,0.00
2018-03-11T01:29:36.080Z,0.00
2018-03-11T01:30:36.059Z,0.00
2018-03-11T01:31:36.025Z,0.00
2018-03-11T01:32:36.001Z,0.00
2018-03-11T01:33:35.975Z,0.00
2018-03-11T01:34:35.961Z,0.00
2018-03-11T01:35:35.916Z,0.00
2018-03-11T01:36:35.885Z,0.00
2018-03-11T01:37:35.896Z,0.00
2018-03-11T01:38:35.826Z,0.00
2018-03-11T01:39:35.800Z,0.00
2018-03-11T01:40:35.772Z,0.00
2018-03-11T01:41:35.748Z,0.00
2018-03-11T01:42:35.718Z,0.00
2018-03-11T01:43:35.690Z,0.00
2018-03-11T01:44:35.669Z,0.00
2018-03-11T01:45:35.645Z,0.00
2018-03-11T01:46:35.609Z,0.00
2018-03-11T01:47:35.583Z,0.00
2018-03-11T01:48:35.556Z,0.00
2018-03-11T01:49:35.530Z,0.00
2018-03-11T01:50:35.501Z,0.00
2018-03-11T01:51:35.473Z,0.00
2018-03-11T01:52:35.441Z,0.00
2018-03-11T01:53:35.415Z,0.00
2018-03-11T01:54:35.391Z,0.00
2018-03-11T01:55:35.358Z,0.00
2018-03-11T01:56:35.332Z,0.00
2018-03-11T01:57:35.307Z,0.00
2018-03-11T01:58:35.280Z,0.00
2018-03-11T01:59:35.253Z,0.00
2018-03-11T02:00:38.051Z,0.00
2018-03-11T02:01:35.193Z,0.00
2018-03-11T02:02:35.164Z,0.00
2018-03-11T02:03:35.139Z,0.00
2018-03-11T02:04:35.120Z,0.00
2018-03-11T02:05:35.085Z,0.00
2018-03-11T02:06:35.059Z,0.00
2018-03-11T02:07:35.032Z,0.00
2018-03-11T02:08:35.039Z,0.00
2018-03-11T02:09:34.980Z,0.00
2018-03-11T02:10:34.949Z,0.00
2018-03-11T02:11:34.993Z,0.00
2018-03-11T02:12:34.901Z,0.00
2018-03-11T02:13:34.868Z,0.00
2018-03-11T02:14:34.840Z,0.00
2018-03-11T02:15:34.812Z,0.00
2018-03-11T02:16:34.780Z,0.00
2018-03-11T02:17:34.775Z,0.00
2018-03-11T02:18:34.723Z,0.00
2018-03-11T02:19:34.693Z,0.00
2018-03-11T02:20:34.681Z,0.00
2018-03-11T02:21:34.643Z,0.00
2018-03-11T02:22:34.613Z,0.00
2018-03-11T02:23:34.589Z,0.00
2018-03-11T02:24:34.565Z,0.00
2018-03-11T02:25:34.533Z,0.00
2018-03-11T02:26:34.508Z,0.00
2018-03-11T02:27:34.481Z,0.00
2018-03-11T02:28:34.450Z,0.00
2018-03-11T02:29:34.428Z,0.00
2018-03-11T02:30:34.392Z,0.00
2018-03-11T02:31:34.367Z,0.00
2018-03-11T02:32:34.335Z,0.00
2018-03-11T02:33:34.305Z,0.00
2018-03-11T02:34:34.290Z,0.00
2018-03-11T02:35:35.066Z,0.00
2018-03-11T02:36:34.222Z,0.00
2018-03-11T02:37:34.192Z,0.00
2018-03-11T02:38:36.071Z,0.00
2018-03-11T02:39:34.142Z,0.00
2018-03-11T02:40:36.122Z,0.00
2018-03-11T02:41:34.092Z,0.00
2018-03-11T02:42:34.062Z,0.00
2018-03-11T02:43:34.031Z,0.00
2018-03-11T02:44:34.004Z,0.00
2018-03-11T02:45:33.982Z,0.00
2018-03-11T02:46:33.947Z,0.00
2018-03-11T02:47:33.922Z,0.00
2018-03-11T02:48:33.886Z,0.00
2018-03-11T02:49:33.866Z,0.00
2018-03-11T02:50:33.834Z,0.00
2018-03-11T02:51:33.803Z,0.00
2018-03-11T02:52:33.775Z,0.00
2018-03-11T02:53:33.747Z,0.00
2018-03-11T02:54:33.721Z,0.00
2018-03-11T02:55:33.694Z,0.00
2018-03-11T02:56:33.668Z,0.00
2018-03-11T02:57:33.640Z,0.00
2018-03-11T02:58:33.610Z,0.00
2018-03-11T02:59:36.567Z,0.00
2018-03-11T03:00:33.553Z,0.00
2018-03-11T03:01:33.525Z,0.00
2018-03-11T03:02:33.497Z,0.00
2018-03-11T03:03:33.468Z,0.00
2018-03-11T03:04:33.447Z,0.00
2018-03-11T03:05:33.445Z,0.00
2018-03-11T03:06:35.066Z,0.00
2018-03-11T03:07:33.365Z,0.00
2018-03-11T03:08:33.343Z,0.00
2018-03-11T03:09:33.303Z,0.00
2018-03-11T03:10:33.274Z,0.00
2018-03-11T03:11:33.256Z,0.00
2018-03-11T03:12:33.216Z,0.00
2018-03-11T03:13:33.187Z,0.00
2018-03-11T03:14:33.159Z,0.00
2018-03-11T03:15:33.132Z,0.00
2018-03-11T03:16:33.106Z,0.00
2018-03-11T03:17:33.076Z,0.00
2018-03-11T03:18:33.114Z,0.00
2018-03-11T03:19:35.570Z,0.00
2018-03-11T03:20:32.994Z,0.00
2018-03-11T03:21:32.968Z,0.00
2018-03-11T03:22:32.940Z,0.00
2018-03-11T03:23:32.919Z,0.00
2018-03-11T03:24:32.909Z,0.00
2018-03-11T03:25:32.858Z,0.00
2018-03-11T03:26:32.830Z,0.00
2018-03-11T03:27:32.823Z,0.00
2018-03-11T03:28:32.767Z,0.00
2018-03-11T03:29:32.737Z,0.00
2018-03-11T03:30:32.771Z,0.00
2018-03-11T03:31:32.682Z,0.00
2018-03-11T03:32:32.653Z,0.00
2018-03-11T03:33:32.639Z,0.00
2018-03-11T03:34:32.598Z,0.00
2018-03-11T03:35:32.572Z,0.00
2018-03-11T03:36:32.546Z,0.00
2018-03-11T03:37:32.524Z,0.00
2018-03-11T03:38:32.489Z,0.00
2018-03-11T03:39:32.487Z,0.00
2018-03-11T03:40:32.437Z,0.00
2018-03-11T03:41:32.411Z,0.00
2018-03-11T03:42:32.392Z,0.00
2018-03-11T03:43:32.353Z,0.00
2018-03-11T03:44:32.317Z,0.00
2018-03-11T03:45:32.299Z,0.00
2018-03-11T03:46:32.262Z,0.00
2018-03-11T03:47:32.235Z,0.00
2018-03-11T03:48:32.204Z,0.00
2018-03-11T03:49:32.173Z,0.00
2018-03-11T03:50:34.067Z,0.00
2018-03-11T03:51:32.127Z,0.00
2018-03-11T03:52:32.095Z,0.00
2018-03-11T03:53:32.076Z,0.00
2018-03-11T03:54:34.571Z,0.00
2018-03-11T03:55:32.011Z,0.00
2018-03-11T03:56:31.982Z,0.00
2018-03-11T03:57:31.957Z,0.00
2018-03-11T03:58:31.932Z,0.00
2018-03-11T03:59:31.895Z,0.00
2018-03-11T04:00:31.868Z,0.00
2018-03-11T04:01:31.860Z,0.00
2018-03-11T04:02:31.808Z,0.00
2018-03-11T04:03:34.573Z,0.00
2018-03-11T04:04:31.751Z,0.00
2018-03-11T04:05:31.732Z,0.00
2018-03-11T04:06:31.696Z,0.00
2018-03-11T04:07:31.672Z,0.00
2018-03-11T04:08:31.647Z,0.00
2018-03-11T04:09:31.613Z,0.00
2018-03-11T04:10:31.588Z,0.00
2018-03-11T04:11:31.559Z,0.00
2018-03-11T04:12:31.531Z,0.00
2018-03-11T04:13:31.501Z,0.00
2018-03-11T04:14:31.473Z,0.00
2018-03-11T04:15:31.459Z,0.00
2018-03-11T04:16:31.408Z,0.00
2018-03-11T04:17:31.381Z,0.00
2018-03-11T04:18:31.372Z,0.00
2018-03-11T04:19:31.323Z,0.00
2018-03-11T04:20:31.300Z,0.00
2018-03-11T04:21:31.269Z,0.00
2018-03-11T04:22:31.239Z,0.00
2018-03-11T04:23:31.212Z,0.00
2018-03-11T04:24:31.187Z,0.00
2018-03-11T04:25:31.157Z,0.00
2018-03-11T04:26:31.133Z,0.00
2018-03-11T04:27:31.106Z,0.00
2018-03-11T04:28:31.071Z,0.00
2018-03-11T04:29:31.044Z,0.00
2018-03-11T04:30:31.017Z,0.00
2018-03-11T04:31:30.988Z,0.00
2018-03-11T04:32:30.990Z,0.00
2018-03-11T04:33:30.927Z,0.00
2018-03-11T04:34:32.592Z,0.00
2018-03-11T04:35:30.871Z,0.00
2018-03-11T04:36:30.843Z,0.00
2018-03-11T04:37:30.813Z,0.00
2018-03-11T04:38:30.802Z,0.00
2018-03-11T04:39:30.757Z,0.00
2018-03-11T04:40:30.749Z,0.00
2018-03-11T04:41:30.716Z,0.00
2018-03-11T04:42:30.677Z,0.00
2018-03-11T04:43:30.697Z,0.00
2018-03-11T04:44:30.616Z,0.00
2018-03-11T04:45:30.585Z,0.00
2018-03-11T04:46:30.574Z,0.00
2018-03-11T04:47:30.528Z,0.00
2018-03-11T04:48:30.494Z,0.00
2018-03-11T04:49:30.478Z,0.00
2018-03-11T04:50:30.437Z,0.00
2018-03-11T04:51:30.417Z,0.00
2018-03-11T04:52:30.400Z,0.00
2018-03-11T04:53:30.353Z,0.00
2018-03-11T04:54:30.324Z,0.00
2018-03-11T04:55:30.305Z,0.00
2018-03-11T04:56:30.272Z,0.00
2018-03-11T04:57:33.081Z,0.00
2018-03-11T04:58:30.215Z,0.00
2018-03-11T04:59:30.185Z,0.00
2018-03-11T05:00:30.153Z,0.00
2018-03-11T05:01:30.150Z,0.00
2018-03-11T05:02:30.104Z,0.00
2018-03-11T05:03:30.066Z,0.00
2018-03-11T05:04:30.055Z,0.00
2018-03-11T05:05:30.048Z,0.00
2018-03-11T05:06:29.979Z,0.00
2018-03-11T05:07:29.972Z,0.00
2018-03-11T05:08:29.930Z,0.00
2018-03-11T05:09:29.896Z,0.00
2018-03-11T05:10:29.900Z,0.00
2018-03-11T05:11:29.840Z,0.00
2018-03-11T05:12:32.605Z,0.00
2018-03-11T05:13:29.777Z,0.00
2018-03-11T05:14:31.599Z,0.00
2018-03-11T05:15:29.721Z,0.00
2018-03-11T05:16:29.691Z,0.00
2018-03-11T05:17:29.665Z,0.00
2018-03-11T05:18:29.635Z,0.00
2018-03-11T05:19:29.602Z,0.00
2018-03-11T05:20:29.583Z,0.00
2018-03-11T05:21:29.561Z,0.00
2018-03-11T05:22:29.526Z,0.00
2018-03-11T05:23:29.492Z,0.00
2018-03-11T05:24:29.464Z,0.00
2018-03-11T05:25:29.435Z,0.00
2018-03-11T05:26:29.406Z,0.00
2018-03-11T05:27:29.376Z,0.00
2018-03-11T05:28:29.349Z,4.00
2018-03-11T05:29:31.095Z,4.00
2018-03-11T05:30:29.288Z,0.00
2018-03-11T05:31:29.296Z,4.00
2018-03-11T05:32:29.239Z,4.00
2018-03-11T05:33:29.207Z,4.00
2018-03-11T05:34:29.177Z,4.00
2018-03-11T05:35:29.151Z,8.00
2018-03-11T05:36:29.118Z,8.00
2018-03-11T05:37:29.092Z,8.00
2018-03-11T05:38:31.587Z,8.00
2018-03-11T05:39:29.034Z,12.00
2018-03-11T05:40:29.007Z,16.00
2018-03-11T05:41:28.978Z,20.00
2018-03-11T05:42:28.950Z,24.00
2018-03-11T05:43:28.922Z,28.00
2018-03-11T05:44:28.901Z,32.00
2018-03-11T05:45:28.856Z,36.00
2018-03-11T05:46:28.828Z,44.00
2018-03-11T05:47:28.797Z,52.00
2018-03-11T05:48:28.772Z,56.00
2018-03-11T05:49:28.747Z,64.00
2018-03-11T05:50:28.714Z,72.00
2018-03-11T05:51:28.686Z,80.00
2018-03-11T05:52:28.661Z,88.00
2018-03-11T05:53:28.659Z,100.00
2018-03-11T05:54:28.606Z,112.00
2018-03-11T05:55:28.575Z,124.00
2018-03-11T05:56:28.547Z,136.00
2018-03-11T05:57:28.521Z,140.00
2018-03-11T05:58:28.491Z,152.00
2018-03-11T05:59:28.461Z,160.00
2018-03-11T06:00:28.435Z,176.00
2018-03-11T06:01:28.415Z,184.00
2018-03-11T06:02:28.378Z,200.00
2018-03-11T06:03:28.348Z,212.00
2018-03-11T06:04:28.318Z,224.00
2018-03-11T06:05:28.339Z,228.00
2018-03-11T06:06:28.265Z,240.00
2018-03-11T06:07:28.232Z,252.00
2018-03-11T06:08:28.210Z,260.00
2018-03-11T06:09:28.176Z,272.00
2018-03-11T06:10:28.164Z,284.00
2018-03-11T06:11:28.140Z,300.00
2018-03-11T06:12:28.094Z,312.00
2018-03-11T06:13:28.058Z,328.00
2018-03-11T06:14:28.046Z,348.00
2018-03-11T06:15:28.003Z,368.00
2018-03-11T06:16:27.978Z,388.00
2018-03-11T06:17:27.969Z,416.00
2018-03-11T06:18:27.928Z,452.00
2018-03-11T06:19:27.896Z,484.00
2018-03-11T06:20:27.874Z,520.00
2018-03-11T06:21:27.846Z,560.00
2018-03-11T06:22:27.810Z,596.00
2018-03-11T06:23:27.824Z,636.00
2018-03-11T06:24:27.753Z,676.00
2018-03-11T06:25:27.723Z,708.00
2018-03-11T06:26:27.712Z,716.00
2018-03-11T06:27:27.667Z,712.00
2018-03-11T06:28:27.637Z,708.00
2018-03-11T06:29:27.688Z,676.00
2018-03-11T06:30:27.604Z,636.00
2018-03-11T06:31:27.549Z,628.00
2018-03-11T06:32:27.628Z,624.00
2018-03-11T06:33:28.342Z,628.00
2018-03-11T06:34:27.474Z,644.00
2018-03-11T06:35:27.443Z,652.00
2018-03-11T06:36:27.417Z,680.00
2018-03-11T06:37:27.389Z,720.00
2018-03-11T06:38:27.365Z,776.00
2018-03-11T06:39:27.348Z,844.00
2018-03-11T06:40:27.313Z,928.00
2018-03-11T06:41:27.304Z,1016.00
2018-03-11T06:42:27.286Z,1096.00
2018-03-11T06:43:27.216Z,1168.00
2018-03-11T06:44:27.193Z,1236.00
2018-03-11T06:45:27.221Z,1292.00
2018-03-11T06:46:27.281Z,1352.00
2018-03-11T06:47:27.104Z,1412.00
2018-03-11T06:48:27.080Z,1492.00
2018-03-11T06:49:27.057Z,1564.00
2018-03-11T06:50:27.030Z,1636.00
2018-03-11T06:51:27.013Z,1700.00
2018-03-11T06:52:27.095Z,1752.00
2018-03-11T06:53:26.983Z,1788.00
2018-03-11T06:54:26.916Z,1816.00
2018-03-11T06:55:26.882Z,1836.00
2018-03-11T06:56:26.852Z,1844.00
2018-03-11T06:57:26.823Z,1820.00
2018-03-11T06:58:26.801Z,1796.00
2018-03-11T06:59:26.825Z,1796.00
2018-03-11T07:00:26.740Z,1808.00
2018-03-11T07:01:26.716Z,1828.00
2018-03-11T07:02:26.687Z,1852.00
2018-03-11T07:03:26.657Z,1896.00
2018-03-11T07:04:26.674Z,1932.00
2018-03-11T07:05:26.608Z,1964.00
2018-03-11T07:06:26.581Z,1984.00
2018-03-11T07:07:26.583Z,2008.00
2018-03-11T07:08:26.530Z,2036.00
2018-03-11T07:09:26.514Z,2032.00
2018-03-11T07:10:26.470Z,2028.00
2018-03-11T07:11:26.453Z,2076.00
2018-03-11T07:12:26.409Z,2120.00
2018-03-11T07:13:26.386Z,2160.00
2018-03-11T07:14:26.362Z,2244.00
2018-03-11T07:15:29.101Z,2336.00
2018-03-11T07:16:26.305Z,2288.00
2018-03-11T07:17:26.285Z,2268.00
2018-03-11T07:18:26.269Z,2380.00
2018-03-11T07:19:26.221Z,2556.00
2018-03-11T07:20:26.191Z,2668.00
2018-03-11T07:21:26.179Z,2772.00
2018-03-11T07:22:26.194Z,2892.00
2018-03-11T07:23:26.110Z,2908.00
2018-03-11T07:24:26.110Z,2984.00
2018-03-11T07:25:27.634Z,3128.00
2018-03-11T07:26:26.042Z,3272.00
2018-03-11T07:27:28.618Z,3492.00
2018-03-11T07:28:26.012Z,3660.00
2018-03-11T07:29:25.958Z,3696.00
2018-03-11T07:30:25.942Z,3496.00
2018-03-11T07:31:25.939Z,3544.00
2018-03-11T07:32:25.872Z,3580.00
2018-03-11T07:33:25.861Z,3448.00
2018-03-11T07:34:25.819Z,3316.00
2018-03-11T07:35:25.793Z,3228.00
2018-03-11T07:36:25.757Z,3184.00
2018-03-11T07:37:25.735Z,3204.00
2018-03-11T07:38:25.726Z,3252.00
2018-03-11T07:39:25.680Z,3320.00
2018-03-11T07:40:25.707Z,3468.00
2018-03-11T07:41:25.664Z,3640.00
2018-03-11T07:42:25.606Z,3664.00
2018-03-11T07:43:25.570Z,3720.00
2018-03-11T07:44:25.563Z,3768.00
2018-03-11T07:45:25.531Z,3728.00
2018-03-11T07:46:25.501Z,3612.00
2018-03-11T07:47:25.472Z,3400.00
2018-03-11T07:48:25.446Z,3264.00
2018-03-11T07:49:25.416Z,3244.00
2018-03-11T07:50:28.105Z,3292.00
2018-03-11T07:51:25.365Z,3336.00
2018-03-11T07:52:25.332Z,3332.00
2018-03-11T07:53:25.307Z,3280.00
2018-03-11T07:54:28.104Z,3232.00
2018-03-11T07:55:25.253Z,3108.00
2018-03-11T07:56:25.229Z,3000.00
2018-03-11T07:57:25.201Z,2924.00
2018-03-11T07:58:25.176Z,2928.00
2018-03-11T07:59:25.149Z,3028.00
2018-03-11T08:00:25.192Z,3120.00
2018-03-11T08:01:25.132Z,3136.00
2018-03-11T08:02:25.074Z,3020.00
2018-03-11T08:03:25.048Z,2820.00
2018-03-11T08:04:26.640Z,2600.00
2018-03-11T08:05:25.035Z,2348.00
2018-03-11T08:06:24.990Z,2000.00
2018-03-11T08:07:24.976Z,1712.00
2018-03-11T08:08:24.916Z,1600.00
2018-03-11T08:09:24.886Z,1640.00
2018-03-11T08:10:24.891Z,1840.00
2018-03-11T08:11:24.830Z,2100.00
2018-03-11T08:12:26.607Z,2440.00
2018-03-11T08:13:24.811Z,2788.00
2018-03-11T08:14:24.806Z,3120.00
2018-03-11T08:15:24.735Z,3352.00
2018-03-11T08:16:24.731Z,3644.00
2018-03-11T08:17:24.871Z,4008.00
2018-03-11T08:18:24.681Z,4344.00
2018-03-11T08:19:24.632Z,4512.00
2018-03-11T08:20:24.641Z,4460.00
2018-03-11T08:21:24.580Z,4360.00
2018-03-11T08:22:24.972Z,4108.00
2018-03-11T08:23:24.525Z,3752.00
2018-03-11T08:24:24.556Z,3400.00
2018-03-11T08:25:24.512Z,3228.00
2018-03-11T08:26:25.194Z,3084.00
2018-03-11T08:27:24.419Z,2972.00
2018-03-11T08:28:24.408Z,2816.00
2018-03-11T08:29:24.394Z,2632.00
2018-03-11T08:30:24.339Z,2444.00
2018-03-11T08:31:26.156Z,2356.00
2018-03-11T08:32:24.287Z,2304.00
2018-03-11T08:33:24.260Z,2512.00
2018-03-11T08:34:24.265Z,3008.00
2018-03-11T08:35:24.224Z,3364.00
2018-03-11T08:36:24.206Z,3304.00
2018-03-11T08:37:24.163Z,3280.00
2018-03-11T08:38:24.130Z,3304.00
2018-03-11T08:39:24.105Z,3184.00
2018-03-11T08:40:24.077Z,3176.00
2018-03-11T08:41:24.051Z,3356.00
2018-03-11T08:42:24.026Z,3724.00
2018-03-11T08:43:24.036Z,4452.00
2018-03-11T08:44:24.062Z,5172.00
2018-03-11T08:45:24.113Z,5928.00
2018-03-11T08:46:23.968Z,6600.00
2018-03-11T08:47:24.116Z,6820.00
2018-03-11T08:48:24.029Z,6740.00
2018-03-11T08:49:23.908Z,6844.00
2018-03-11T08:50:23.908Z,7244.00
2018-03-11T08:51:23.840Z,7208.00
2018-03-11T08:52:23.795Z,6696.00
2018-03-11T08:53:23.827Z,5780.00
2018-03-11T08:54:23.732Z,4736.00
2018-03-11T08:55:23.688Z,3912.00
2018-03-11T08:56:23.667Z,3700.00
2018-03-11T08:57:23.649Z,3660.00
2018-03-11T08:58:23.652Z,3876.00
2018-03-11T08:59:23.622Z,3976.00
2018-03-11T09:00:23.556Z,4124.00
2018-03-11T09:01:23.665Z,4120.00
2018-03-11T09:02:23.757Z,4248.00
2018-03-11T09:03:23.488Z,4356.00
2018-03-11T09:04:23.510Z,4340.00
2018-03-11T09:05:23.553Z,4184.00
2018-03-11T09:06:23.414Z,3808.00
2018-03-11T09:07:23.498Z,3288.00
2018-03-11T09:08:23.359Z,3100.00
2018-03-11T09:09:23.410Z,3384.00
2018-03-11T09:10:23.334Z,3620.00
2018-03-11T09:11:23.398Z,3656.00
2018-03-11T09:12:23.328Z,3700.00
2018-03-11T09:13:23.238Z,3608.00
2018-03-11T09:14:23.234Z,3428.00
2018-03-11T09:15:23.195Z,3088.00
2018-03-11T09:16:23.265Z,2964.00
2018-03-11T09:17:23.142Z,3112.00
2018-03-11T09:18:23.135Z,3008.00
2018-03-11T09:19:23.101Z,2784.00
2018-03-11T09:20:23.055Z,2536.00
2018-03-11T09:21:23.030Z,2324.00
2018-03-11T09:22:24.675Z,2368.00
2018-03-11T09:23:22.969Z,2476.00
2018-03-11T09:24:22.946Z,2704.00
2018-03-11T09:25:22.922Z,3048.00
2018-03-11T09:26:22.920Z,3556.00
2018-03-11T09:27:22.872Z,4260.00
2018-03-11T09:28:22.873Z,5124.00
2018-03-11T09:29:22.818Z,5656.00
2018-03-11T09:30:22.793Z,5240.00
2018-03-11T09:31:22.764Z,5024.00
2018-03-11T09:32:22.764Z,4940.00
2018-03-11T09:33:22.738Z,4648.00
2018-03-11T09:34:22.741Z,4348.00
2018-03-11T09:35:22.663Z,3984.00
2018-03-11T09:36:22.795Z,3564.00
2018-03-11T09:37:22.638Z,3276.00
2018-03-11T09:38:22.617Z,3132.00
2018-03-11T09:39:22.602Z,2848.00
2018-03-11T09:40:22.585Z,2892.00
2018-03-11T09:41:22.637Z,2740.00
2018-03-11T09:42:22.485Z,2532.00
2018-03-11T09:43:22.453Z,2636.00
2018-03-11T09:44:22.471Z,2844.00
2018-03-11T09:45:22.431Z,2784.00
2018-03-11T09:46:22.388Z,2536.00
2018-03-11T09:47:22.388Z,2304.00
2018-03-11T09:48:22.664Z,2332.00
2018-03-11T09:49:22.364Z,3032.00
2018-03-11T09:50:22.369Z,4144.00
2018-03-11T09:51:22.332Z,5128.00
2018-03-11T09:52:22.232Z,5648.00
2018-03-11T09:53:22.260Z,5896.00
2018-03-11T09:54:24.187Z,5984.00
2018-03-11T09:55:22.213Z,5908.00
2018-03-11T09:56:22.176Z,5780.00
2018-03-11T09:57:22.153Z,5768.00
2018-03-11T09:58:22.122Z,5800.00
2018-03-11T09:59:22.181Z,5852.00
2018-03-11T10:00:22.052Z,5912.00
2018-03-11T10:01:22.011Z,6172.00
2018-03-11T10:02:21.995Z,6544.00
2018-03-11T10:03:21.990Z,6688.00
2018-03-11T10:04:21.930Z,6616.00
2018-03-11T10:05:21.905Z,6644.00
2018-03-11T10:06:21.881Z,6484.00
2018-03-11T10:07:21.857Z,6332.00
2018-03-11T10:08:21.830Z,6056.00
2018-03-11T10:09:21.811Z,5576.00
2018-03-11T10:10:21.898Z,5280.00
2018-03-11T10:11:21.745Z,5056.00
2018-03-11T10:12:21.732Z,4916.00
2018-03-11T10:13:21.750Z,4684.00
2018-03-11T10:14:21.689Z,4128.00
2018-03-11T10:15:21.703Z,3424.00
2018-03-11T10:16:21.669Z,2996.00
2018-03-11T10:17:21.605Z,2824.00
2018-03-11T10:18:21.579Z,2920.00
2018-03-11T10:19:21.555Z,3172.00
2018-03-11T10:20:21.530Z,3360.00
2018-03-11T10:21:21.538Z,3552.00
2018-03-11T10:22:21.489Z,3528.00
2018-03-11T10:23:21.459Z,3396.00
2018-03-11T10:24:21.429Z,3080.00
2018-03-11T10:25:21.405Z,2876.00
2018-03-11T10:26:21.374Z,3144.00
2018-03-11T10:27:21.413Z,3860.00
2018-03-11T10:28:21.358Z,4648.00
2018-03-11T10:29:21.349Z,5164.00
2018-03-11T10:30:21.359Z,5384.00
2018-03-11T10:31:21.256Z,5600.00
2018-03-11T10:32:21.228Z,5844.00
2018-03-11T10:33:21.261Z,5928.00
2018-03-11T10:34:21.190Z,5708.00
2018-03-11T10:35:21.197Z,5420.00
2018-03-11T10:36:21.136Z,5148.00
2018-03-11T10:37:21.102Z,4716.00
2018-03-11T10:38:21.092Z,4284.00
2018-03-11T10:39:21.063Z,4300.00
2018-03-11T10:40:21.067Z,4500.00
2018-03-11T10:41:21.038Z,4856.00
2018-03-11T10:42:21.010Z,4936.00
2018-03-11T10:43:21.013Z,4508.00
2018-03-11T10:44:20.933Z,4020.00
2018-03-11T10:45:20.912Z,3660.00
2018-03-11T10:46:20.893Z,3672.00
2018-03-11T10:47:20.925Z,4068.00
2018-03-11T10:48:20.865Z,4608.00
2018-03-11T10:49:20.830Z,4800.00
2018-03-11T10:50:20.796Z,4244.00
2018-03-11T10:51:20.758Z,4388.00
2018-03-11T10:52:20.736Z,4872.00
2018-03-11T10:53:20.759Z,4872.00
2018-03-11T10:54:20.704Z,4856.00
2018-03-11T10:55:20.712Z,4836.00
2018-03-11T10:56:20.668Z,4928.00
2018-03-11T10:57:20.616Z,5092.00
2018-03-11T10:58:20.592Z,4864.00
2018-03-11T10:59:20.567Z,4564.00
2018-03-11T11:00:20.577Z,4644.00
2018-03-11T11:01:20.536Z,5220.00
2018-03-11T11:02:20.604Z,5268.00
2018-03-11T11:03:20.470Z,5536.00
2018-03-11T11:04:20.442Z,5828.00
2018-03-11T11:05:20.416Z,6460.00
2018-03-11T11:06:20.394Z,6904.00
2018-03-11T11:07:20.569Z,6980.00
2018-03-11T11:08:20.370Z,6156.00
2018-03-11T11:09:20.324Z,5680.00
2018-03-11T11:10:20.303Z,6100.00
2018-03-11T11:11:20.276Z,6172.00
2018-03-11T11:12:20.248Z,7132.00
2018-03-11T11:13:20.226Z,8204.00
2018-03-11T11:14:20.243Z,7916.00
2018-03-11T11:15:20.196Z,8124.00
2018-03-11T11:16:20.229Z,9192.00
2018-03-11T11:17:20.147Z,8700.00
2018-03-11T11:18:20.101Z,7852.00
2018-03-11T11:19:20.093Z,7916.00
2018-03-11T11:20:20.082Z,7328.00
2018-03-11T11:21:20.036Z,7092.00
2018-03-11T11:22:20.045Z,7996.00
2018-03-11T11:23:20.012Z,9212.00
2018-03-11T11:24:19.995Z,9556.00
2018-03-11T11:25:20.052Z,10160.00
2018-03-11T11:26:20.033Z,10796.00
2018-03-11T11:27:19.919Z,11036.00
2018-03-11T11:28:19.938Z,10960.00
2018-03-11T11:29:19.931Z,10700.00
2018-03-11T11:30:19.885Z,10468.00
2018-03-11T11:31:19.999Z,10276.00
2018-03-11T11:32:19.905Z,10004.00
2018-03-11T11:33:19.932Z,9820.00
2018-03-11T11:34:19.812Z,9784.00
2018-03-11T11:35:19.824Z,9860.00
2018-03-11T11:36:19.756Z,9940.00
2018-03-11T11:37:19.763Z,9972.00
2018-03-11T11:38:19.816Z,9860.00
2018-03-11T11:39:19.678Z,9660.00
2018-03-11T11:40:19.680Z,9496.00
2018-03-11T11:41:19.561Z,9336.00
2018-03-11T11:42:19.654Z,9224.00
2018-03-11T11:43:19.749Z,9260.00
2018-03-11T11:44:19.658Z,9160.00
2018-03-11T11:45:19.536Z,9012.00
2018-03-11T11:46:19.496Z,8944.00
2018-03-11T11:47:19.449Z,8980.00
2018-03-11T11:48:19.522Z,8904.00
2018-03-11T11:49:19.410Z,8820.00
2018-03-11T11:50:19.423Z,8684.00
2018-03-11T11:51:19.410Z,8624.00
2018-03-11T11:52:19.375Z,8532.00
2018-03-11T11:53:19.278Z,8328.00
2018-03-11T11:54:19.252Z,8136.00
2018-03-11T11:55:19.302Z,7972.00
2018-03-11T11:56:19.206Z,7808.00
2018-03-11T11:57:22.317Z,7728.00
2018-03-11T11:58:19.175Z,7456.00
2018-03-11T11:59:19.143Z,7332.00
2018-03-11T12:00:19.111Z,7292.00
2018-03-11T12:01:20.853Z,7356.00
2018-03-11T12:02:19.077Z,7352.00
2018-03-11T12:03:19.054Z,7572.00
2018-03-11T12:04:19.016Z,7508.00
2018-03-11T12:05:19.003Z,7580.00
2018-03-11T12:06:18.984Z,7616.00
2018-03-11T12:07:18.948Z,7636.00
2018-03-11T12:08:18.928Z,7572.00
2018-03-11T12:09:18.978Z,7016.00
2018-03-11T12:10:19.014Z,6876.00
2018-03-11T12:11:18.892Z,6780.00
2018-03-11T12:12:18.976Z,6488.00
2018-03-11T12:13:18.986Z,5836.00
2018-03-11T12:14:18.871Z,6056.00
2018-03-11T12:15:18.767Z,6060.00
2018-03-11T12:16:18.789Z,5676.00
2018-03-11T12:17:18.723Z,5732.00
2018-03-11T12:18:18.693Z,6396.00
2018-03-11T12:19:18.672Z,7120.00
2018-03-11T12:20:18.645Z,7320.00
2018-03-11T12:21:18.618Z,7632.00
2018-03-11T12:22:18.594Z,7584.00
2018-03-11T12:23:18.572Z,7788.00
2018-03-11T12:24:18.557Z,7912.00
2018-03-11T12:25:18.535Z,7912.00
2018-03-11T12:26:18.509Z,7796.00
2018-03-11T12:27:18.479Z,7808.00
2018-03-11T12:28:18.464Z,7956.00
2018-03-11T12:29:18.485Z,8004.00
2018-03-11T12:30:18.412Z,8276.00
2018-03-11T12:31:18.386Z,8540.00
2018-03-11T12:32:18.364Z,8648.00
2018-03-11T12:33:18.336Z,8576.00
2018-03-11T12:34:18.311Z,8380.00
2018-03-11T12:35:18.292Z,8264.00
2018-03-11T12:36:18.264Z,8596.00
2018-03-11T12:37:18.240Z,8612.00
2018-03-11T12:38:18.220Z,8412.00